createdAt,value
2023-01-22T00:01:19.261Z,33.70
2023-01-22T00:03:47.198Z,29.92
2023-01-22T00:06:14.970Z,31.15
2023-01-22T00:08:42.300Z,35.67
2023-01-22T00:11:11.093Z,30.47
2023-01-22T00:13:38.353Z,33.60
2023-01-22T00:16:06.132Z,30.20
2023-01-22T00:18:33.705Z,31.13
2023-01-22T00:21:00.916Z,30.42
2023-01-22T00:23:27.999Z,29.00
2023-01-22T00:26:04.138Z,29.90
2023-01-22T00:28:31.933Z,29.13
2023-01-22T00:31:04.536Z,27.25
2023-01-22T00:33:33.046Z,30.10
2023-01-22T00:36:26.770Z,26.73
2023-01-22T00:38:53.835Z,28.17
2023-01-22T00:41:21.018Z,32.10
2023-01-22T00:43:50.059Z,26.05
2023-01-22T00:46:18.611Z,30.10
2023-01-22T00:48:45.857Z,27.70
2023-01-22T00:51:14.747Z,26.10
2023-01-22T00:53:43.533Z,27.52
2023-01-22T00:56:12.563Z,26.17
2023-01-22T00:58:40.334Z,26.15
2023-01-22T01:01:08.290Z,26.80
2023-01-22T01:03:37.692Z,24.52
2023-01-22T01:06:09.032Z,24.80
2023-01-22T01:08:42.153Z,29.33
2023-01-22T01:11:16.479Z,27.60
2023-01-22T01:13:44.875Z,24.57
2023-01-22T01:16:32.790Z,25.95
2023-01-22T01:19:07.764Z,27.05
2023-01-22T01:21:35.216Z,26.88
2023-01-22T01:24:03.082Z,29.27
2023-01-22T01:26:30.346Z,28.30
2023-01-22T01:28:57.486Z,26.67
2023-01-22T01:31:26.189Z,29.80
2023-01-22T01:33:53.782Z,28.20
2023-01-22T01:36:46.254Z,30.10
2023-01-22T01:39:11.698Z,33.93
2023-01-22T01:41:38.850Z,29.08
2023-01-22T01:44:20.861Z,27.02
2023-01-22T01:47:05.097Z,27.58
2023-01-22T01:49:52.324Z,25.98
2023-01-22T01:52:19.880Z,24.20
2023-01-22T01:54:52.506Z,26.70
2023-01-22T01:57:26.775Z,25.83
2023-01-22T01:59:55.188Z,25.25
2023-01-22T02:02:23.114Z,22.42
2023-01-22T02:04:51.246Z,25.77
2023-01-22T02:07:19.436Z,25.98
2023-01-22T02:09:47.371Z,25.92
2023-01-22T02:12:14.523Z,24.17
2023-01-22T02:14:45.909Z,26.65
2023-01-22T02:17:19.599Z,26.03
2023-01-22T02:19:50.157Z,26.80
2023-01-22T02:22:23.927Z,27.10
2023-01-22T02:24:51.193Z,26.48
2023-01-22T02:27:19.007Z,24.50
2023-01-22T02:29:47.320Z,23.77
2023-01-22T02:32:15.081Z,26.02
2023-01-22T02:34:42.522Z,29.00
2023-01-22T02:37:10.498Z,28.40
2023-01-22T02:39:38.061Z,27.17
2023-01-22T02:42:08.464Z,25.87
2023-01-22T02:44:36.413Z,29.23
2023-01-22T02:47:04.000Z,29.17
2023-01-22T02:49:31.140Z,26.90
2023-01-22T02:51:58.317Z,23.55
2023-01-22T02:54:25.576Z,25.23
2023-01-22T02:56:52.733Z,28.50
2023-01-22T02:59:19.807Z,24.75
2023-01-22T03:01:47.577Z,29.30
2023-01-22T03:04:15.947Z,25.48
2023-01-22T03:06:45.800Z,23.07
2023-01-22T03:09:17.524Z,24.83
2023-01-22T03:11:46.771Z,25.58
2023-01-22T03:14:39.137Z,27.63
2023-01-22T03:17:27.294Z,28.45
2023-01-22T03:20:12.973Z,27.30
2023-01-22T03:22:40.066Z,25.65
2023-01-22T03:25:07.588Z,28.48
2023-01-22T03:27:34.774Z,31.00
2023-01-22T03:30:02.001Z,28.92
2023-01-22T03:32:33.655Z,28.57
2023-01-22T03:35:01.694Z,29.65
2023-01-22T03:37:38.589Z,28.85
2023-01-22T03:40:06.690Z,29.92
2023-01-22T03:42:38.301Z,26.00
2023-01-22T03:45:07.281Z,29.73
2023-01-22T03:47:37.455Z,26.42
2023-01-22T03:50:18.435Z,27.27
2023-01-22T03:52:46.330Z,28.77
2023-01-22T03:55:13.453Z,30.52
2023-01-22T03:57:40.529Z,30.70
2023-01-22T04:00:08.681Z,30.05
2023-01-22T04:02:39.917Z,29.88
2023-01-22T04:05:17.412Z,29.77
2023-01-22T04:07:44.926Z,27.45
2023-01-22T04:10:13.032Z,29.13
2023-01-22T04:12:41.429Z,33.13
2023-01-22T04:15:11.785Z,31.98
2023-01-22T04:17:38.977Z,34.85
2023-01-22T04:20:41.958Z,29.45
2023-01-22T04:23:20.277Z,25.60
2023-01-22T04:25:49.404Z,29.00
2023-01-22T04:28:17.063Z,30.63
2023-01-22T04:30:47.435Z,31.95
2023-01-22T04:33:29.932Z,33.17
2023-01-22T04:36:02.665Z,27.87
2023-01-22T04:38:29.886Z,29.98
2023-01-22T04:40:57.042Z,33.10
2023-01-22T04:43:24.145Z,29.25
2023-01-22T04:45:51.834Z,33.08
2023-01-22T04:48:21.444Z,38.60
2023-01-22T04:50:48.734Z,33.67
2023-01-22T04:53:15.949Z,35.33
2023-01-22T04:55:43.471Z,34.13
2023-01-22T04:58:11.630Z,41.45
2023-01-22T05:00:39.868Z,34.80
2023-01-22T05:03:07.301Z,35.58
2023-01-22T05:05:34.757Z,33.22
2023-01-22T05:08:02.481Z,33.70
2023-01-22T05:10:30.792Z,31.75
2023-01-22T05:13:02.088Z,33.33
2023-01-22T05:15:29.611Z,33.53
2023-01-22T05:18:00.744Z,31.30
2023-01-22T05:20:28.227Z,29.00
2023-01-22T05:22:55.374Z,25.88
2023-01-22T05:25:25.152Z,24.70
2023-01-22T05:27:52.460Z,25.60
2023-01-22T05:30:39.910Z,25.55
2023-01-22T05:33:24.297Z,27.00
2023-01-22T05:36:02.128Z,22.65
2023-01-22T05:38:31.007Z,21.73
2023-01-22T05:40:59.029Z,21.83
2023-01-22T05:43:28.728Z,20.38
2023-01-22T05:46:02.394Z,23.92
2023-01-22T05:48:48.762Z,21.55
2023-01-22T05:51:23.339Z,28.23
2023-01-22T05:53:51.472Z,23.27
2023-01-22T05:56:18.991Z,23.92
2023-01-22T05:58:46.158Z,25.50
2023-01-22T06:01:13.940Z,21.95
2023-01-22T06:03:45.485Z,22.00
2023-01-22T06:06:16.536Z,21.40
2023-01-22T06:08:45.452Z,26.02
2023-01-22T06:11:16.935Z,23.20
2023-01-22T06:13:47.399Z,22.58
2023-01-22T06:16:19.439Z,21.73
2023-01-22T06:19:12.573Z,22.17
2023-01-22T06:21:59.952Z,19.83
2023-01-22T06:24:42.201Z,20.70
2023-01-22T06:27:10.836Z,23.38
2023-01-22T06:29:48.101Z,19.43
2023-01-22T06:32:15.953Z,23.75
2023-01-22T06:34:43.108Z,19.25
2023-01-22T06:37:10.237Z,20.42
2023-01-22T06:39:38.904Z,20.48
2023-01-22T06:42:21.064Z,21.33
2023-01-22T06:44:50.553Z,19.60
2023-01-22T06:47:18.839Z,22.40
2023-01-22T06:49:45.899Z,21.05
2023-01-22T06:52:13.008Z,20.35
2023-01-22T06:54:40.083Z,20.93
2023-01-22T06:57:07.301Z,16.92
2023-01-22T06:59:37.384Z,18.92
2023-01-22T07:02:05.019Z,19.05
2023-01-22T07:04:32.161Z,21.75
2023-01-22T07:06:59.360Z,18.37
2023-01-22T07:09:26.469Z,19.10
2023-01-22T07:11:53.667Z,20.88
2023-01-22T07:14:35.704Z,18.75
2023-01-22T07:17:03.807Z,19.65
2023-01-22T07:19:30.877Z,20.37
2023-01-22T07:21:57.982Z,18.98
2023-01-22T07:24:25.219Z,17.67
2023-01-22T07:26:52.338Z,20.58
2023-01-22T07:29:19.473Z,18.95
2023-01-22T07:31:49.673Z,17.33
2023-01-22T07:34:17.023Z,20.05
2023-01-22T07:36:45.814Z,16.85
2023-01-22T07:39:13.464Z,15.65
2023-01-22T07:41:40.582Z,18.90
2023-01-22T07:44:12.530Z,18.50
2023-01-22T07:46:39.889Z,19.20
2023-01-22T07:49:07.448Z,17.95
2023-01-22T07:51:34.733Z,16.33
2023-01-22T07:54:01.841Z,18.17
2023-01-22T07:56:28.960Z,17.20
2023-01-22T07:58:56.055Z,19.08
2023-01-22T08:01:23.173Z,19.38
2023-01-22T08:03:50.245Z,18.45
2023-01-22T08:06:22.871Z,18.77
2023-01-22T08:08:50.752Z,17.97
2023-01-22T08:11:17.998Z,19.98
2023-01-22T08:13:45.053Z,16.67
2023-01-22T08:16:12.339Z,15.98
2023-01-22T08:18:39.498Z,16.00
2023-01-22T08:21:07.134Z,16.93
2023-01-22T08:23:34.307Z,16.92
2023-01-22T08:26:03.962Z,18.83
2023-01-22T08:28:31.941Z,16.05
2023-01-22T08:31:01.232Z,15.68
2023-01-22T08:33:29.332Z,16.97
2023-01-22T08:35:56.549Z,16.92
2023-01-22T08:38:23.675Z,16.35
2023-01-22T08:40:52.767Z,15.65
2023-01-22T08:43:20.122Z,13.07
2023-01-22T08:45:50.863Z,20.50
2023-01-22T08:48:18.777Z,17.83
2023-01-22T08:50:45.978Z,14.90
2023-01-22T08:53:13.149Z,15.95
2023-01-22T08:55:40.264Z,17.02
2023-01-22T08:58:07.845Z,14.00
2023-01-22T09:00:34.960Z,14.95
2023-01-22T09:03:02.113Z,14.95
2023-01-22T09:05:29.289Z,12.20
2023-01-22T09:07:56.389Z,15.10
2023-01-22T09:10:23.700Z,12.53
2023-01-22T09:12:50.959Z,15.75
2023-01-22T09:15:18.137Z,15.48
2023-01-22T09:17:45.249Z,18.23
2023-01-22T09:20:12.412Z,14.48
2023-01-22T09:22:39.482Z,13.03
2023-01-22T09:25:07.274Z,15.93
2023-01-22T09:27:34.858Z,13.63
2023-01-22T09:30:02.011Z,16.23
2023-01-22T09:32:29.157Z,16.13
2023-01-22T09:34:56.368Z,15.17
2023-01-22T09:37:23.532Z,15.40
2023-01-22T09:39:51.080Z,12.40
2023-01-22T09:42:35.288Z,14.57
2023-01-22T09:45:10.365Z,12.77
2023-01-22T09:47:51.741Z,15.20
2023-01-22T09:50:33.333Z,16.25
2023-01-22T09:53:06.286Z,15.32
2023-01-22T09:55:55.624Z,15.90
2023-01-22T09:58:25.249Z,12.68
2023-01-22T10:01:04.311Z,18.53
2023-01-22T10:03:49.441Z,17.92
2023-01-22T10:06:22.958Z,12.30
2023-01-22T10:09:16.011Z,12.32
2023-01-22T10:11:51.937Z,12.48
2023-01-22T10:14:23.392Z,12.93
2023-01-22T10:16:51.295Z,14.50
2023-01-22T10:19:29.590Z,16.52
2023-01-22T10:22:05.244Z,14.65
2023-01-22T10:24:32.304Z,13.52
2023-01-22T10:27:12.725Z,15.37
2023-01-22T10:29:40.096Z,15.05
2023-01-22T10:32:33.489Z,14.07
2023-01-22T10:35:07.345Z,14.65
2023-01-22T10:37:53.033Z,14.20
2023-01-22T10:40:40.976Z,13.80
2023-01-22T10:43:12.925Z,14.20
2023-01-22T10:45:52.122Z,11.73
2023-01-22T10:48:20.170Z,13.88
2023-01-22T10:51:03.147Z,14.35
2023-01-22T10:53:36.565Z,11.83
2023-01-22T10:56:08.127Z,13.05
2023-01-22T10:58:40.037Z,14.35
2023-01-22T11:01:35.151Z,15.68
2023-01-22T11:04:32.839Z,13.23
2023-01-22T11:07:31.022Z,14.97
2023-01-22T11:10:20.045Z,13.80
2023-01-22T11:12:54.668Z,13.85
2023-01-22T11:15:25.995Z,16.20
2023-01-22T11:18:02.765Z,14.02
2023-01-22T11:20:53.506Z,13.17
2023-01-22T11:23:42.243Z,14.05
2023-01-22T11:26:48.436Z,12.25
2023-01-22T11:30:02.847Z,13.55
2023-01-22T11:33:10.108Z,14.85
2023-01-22T11:36:00.355Z,11.73
2023-01-22T11:38:52.465Z,15.32
2023-01-22T11:42:01.281Z,13.35
2023-01-22T11:44:40.648Z,12.15
2023-01-22T11:47:30.029Z,13.15
2023-01-22T11:50:28.340Z,11.90
2023-01-22T11:53:18.807Z,16.25
2023-01-22T11:56:12.105Z,15.30
2023-01-22T11:58:56.961Z,12.30
2023-01-22T12:01:54.160Z,14.05
2023-01-22T12:05:03.475Z,11.37
2023-01-22T12:07:55.517Z,12.18
2023-01-22T12:10:56.413Z,15.98
2023-01-22T12:14:12.980Z,12.23
2023-01-22T12:17:00.885Z,13.73
2023-01-22T12:20:01.857Z,13.70
2023-01-22T12:22:40.609Z,11.25
2023-01-22T12:25:31.451Z,14.82
2023-01-22T12:28:15.360Z,11.60
2023-01-22T12:31:28.124Z,14.30
2023-01-22T12:33:55.309Z,13.93
2023-01-22T12:36:25.642Z,12.38
2023-01-22T12:39:30.567Z,20.67
2023-01-22T12:42:26.337Z,13.80
2023-01-22T12:45:11.872Z,17.98
2023-01-22T12:47:57.007Z,16.27
2023-01-22T12:50:26.858Z,16.27
2023-01-22T12:53:27.717Z,13.90
2023-01-22T12:56:08.173Z,18.73
2023-01-22T12:58:39.630Z,16.92
2023-01-22T13:01:10.040Z,19.10
2023-01-22T13:03:39.380Z,16.98
2023-01-22T13:06:38.893Z,15.18
2023-01-22T13:09:24.286Z,18.08
2023-01-22T13:11:51.398Z,16.73
2023-01-22T13:14:28.757Z,15.87
2023-01-22T13:17:20.671Z,16.63
2023-01-22T13:19:50.475Z,16.58
2023-01-22T13:22:26.825Z,21.92
2023-01-22T13:24:59.647Z,18.77
2023-01-22T13:27:32.082Z,17.17
2023-01-22T13:30:14.408Z,20.55
2023-01-22T13:32:41.544Z,19.60
2023-01-22T13:35:13.290Z,23.60
2023-01-22T13:37:41.748Z,20.52
2023-01-22T13:40:23.898Z,18.70
2023-01-22T13:42:51.653Z,16.98
2023-01-22T13:45:29.269Z,17.98
2023-01-22T13:48:06.504Z,18.13
2023-01-22T13:50:33.950Z,17.27
2023-01-22T13:53:03.117Z,18.27
2023-01-22T13:55:30.980Z,16.50
2023-01-22T13:58:01.635Z,14.77
2023-01-22T14:00:35.054Z,18.42
2023-01-22T14:03:02.564Z,20.20
2023-01-22T14:05:34.029Z,21.40
2023-01-22T14:08:13.452Z,17.35
2023-01-22T14:10:42.131Z,15.05
2023-01-22T14:13:13.311Z,17.70
2023-01-22T14:15:42.393Z,17.15
2023-01-22T14:18:11.480Z,19.13
2023-01-22T14:20:43.527Z,18.15
2023-01-22T14:23:11.334Z,19.70
2023-01-22T14:25:44.594Z,19.83
2023-01-22T14:28:12.310Z,17.40
2023-01-22T14:30:39.555Z,19.07
2023-01-22T14:33:07.334Z,21.15
2023-01-22T14:35:34.454Z,21.73
2023-01-22T14:38:01.629Z,16.27
2023-01-22T14:40:30.168Z,20.00
2023-01-22T14:43:00.903Z,20.33
2023-01-22T14:45:28.567Z,19.02
2023-01-22T14:47:55.789Z,18.42
2023-01-22T14:50:23.399Z,23.55
2023-01-22T14:52:51.413Z,20.83
2023-01-22T14:55:19.607Z,20.87
2023-01-22T14:57:46.834Z,21.10
2023-01-22T15:00:17.420Z,21.52
2023-01-22T15:02:45.061Z,20.83
2023-01-22T15:05:12.581Z,18.80
2023-01-22T15:07:39.682Z,20.17
2023-01-22T15:10:08.970Z,22.80
2023-01-22T15:12:36.168Z,32.83
2023-01-22T15:15:03.503Z,38.80
2023-01-22T15:17:30.589Z,24.65
2023-01-22T15:19:57.638Z,28.17
2023-01-22T15:22:24.781Z,22.73
2023-01-22T15:24:51.989Z,26.05
2023-01-22T15:27:19.092Z,22.80
2023-01-22T15:29:46.785Z,20.23
2023-01-22T15:32:14.112Z,25.33
2023-01-22T15:34:41.649Z,21.45
2023-01-22T15:37:09.326Z,22.60
2023-01-22T15:39:36.380Z,24.80
2023-01-22T15:42:03.571Z,24.23
2023-01-22T15:44:30.595Z,24.13
2023-01-22T15:46:59.420Z,22.38
2023-01-22T15:49:26.863Z,25.58
2023-01-22T15:51:54.351Z,26.77
2023-01-22T15:54:21.487Z,22.73
2023-01-22T15:56:48.519Z,21.47
2023-01-22T15:59:15.597Z,21.88
2023-01-22T16:01:42.749Z,22.27
2023-01-22T16:04:11.032Z,24.17
2023-01-22T16:06:38.476Z,21.00
2023-01-22T16:09:09.986Z,24.90
2023-01-22T16:11:37.148Z,29.08
2023-01-22T16:14:04.425Z,31.58
2023-01-22T16:16:37.414Z,24.85
2023-01-22T16:19:07.694Z,31.10
2023-01-22T16:21:35.176Z,30.13
2023-01-22T16:24:03.523Z,26.17
2023-01-22T16:26:35.680Z,53.70
2023-01-22T16:29:05.088Z,32.83
2023-01-22T16:31:35.137Z,22.17
2023-01-22T16:34:13.750Z,24.43
2023-01-22T16:36:42.905Z,25.30
2023-01-22T16:39:17.965Z,25.88
2023-01-22T16:41:49.117Z,26.75
2023-01-22T16:44:27.114Z,32.17
2023-01-22T16:46:57.561Z,31.13
2023-01-22T16:49:31.806Z,28.05
2023-01-22T16:52:20.828Z,29.60
2023-01-22T16:54:49.685Z,28.17
2023-01-22T16:57:17.942Z,28.45
2023-01-22T16:59:44.956Z,27.73
2023-01-22T17:02:15.562Z,27.13
2023-01-22T17:04:42.756Z,24.60
2023-01-22T17:07:23.950Z,24.65
2023-01-22T17:09:59.730Z,27.92
2023-01-22T17:12:27.221Z,28.50
2023-01-22T17:14:54.325Z,28.77
2023-01-22T17:17:21.499Z,30.83
2023-01-22T17:19:48.625Z,29.25
2023-01-22T17:22:15.795Z,25.23
2023-01-22T17:24:43.020Z,27.43
2023-01-22T17:27:14.026Z,27.15
2023-01-22T17:29:41.967Z,23.75
2023-01-22T17:32:09.089Z,28.23
2023-01-22T17:34:37.361Z,28.05
2023-01-22T17:37:09.436Z,30.30
2023-01-22T17:39:37.469Z,23.63
2023-01-22T17:42:04.916Z,27.73
2023-01-22T17:44:34.215Z,23.10
2023-01-22T17:47:02.838Z,23.13
2023-01-22T17:49:31.673Z,28.10
2023-01-22T17:51:58.858Z,24.63
2023-01-22T17:54:26.053Z,26.00
2023-01-22T17:56:53.259Z,27.60
2023-01-22T17:59:22.684Z,25.95
2023-01-22T18:01:50.306Z,25.47
2023-01-22T18:04:17.551Z,26.45
2023-01-22T18:06:45.177Z,27.83
2023-01-22T18:09:13.009Z,29.45
2023-01-22T18:11:41.275Z,25.35
2023-01-22T18:14:16.597Z,20.03
2023-01-22T18:16:44.131Z,23.50
2023-01-22T18:19:11.579Z,23.20
2023-01-22T18:21:39.729Z,30.77
2023-01-22T18:24:09.195Z,26.95
2023-01-22T18:26:37.094Z,30.53
2023-01-22T18:29:05.406Z,27.27
2023-01-22T18:31:33.101Z,24.10
2023-01-22T18:34:03.252Z,25.67
2023-01-22T18:36:37.318Z,27.17
2023-01-22T18:39:12.279Z,26.20
2023-01-22T18:41:40.683Z,25.85
2023-01-22T18:44:09.677Z,26.35
2023-01-22T18:46:39.037Z,25.25
2023-01-22T18:49:12.628Z,24.48
2023-01-22T18:51:41.925Z,26.27
2023-01-22T18:54:09.506Z,27.25
2023-01-22T18:56:37.978Z,26.73
2023-01-22T18:59:05.765Z,30.95
2023-01-22T19:01:38.565Z,27.13
2023-01-22T19:04:09.141Z,50.73
2023-01-22T19:06:38.784Z,32.40
2023-01-22T19:09:08.902Z,24.75
2023-01-22T19:11:40.563Z,28.08
2023-01-22T19:14:09.112Z,31.05
2023-01-22T19:16:37.957Z,24.67
2023-01-22T19:19:13.105Z,23.88
2023-01-22T19:21:48.388Z,24.10
2023-01-22T19:24:18.448Z,24.75
2023-01-22T19:26:46.866Z,24.60
2023-01-22T19:29:19.511Z,28.90
2023-01-22T19:31:51.792Z,32.15
2023-01-22T19:34:26.166Z,28.50
2023-01-22T19:37:02.123Z,29.80
2023-01-22T19:39:29.996Z,28.38
2023-01-22T19:41:58.027Z,24.40
2023-01-22T19:44:25.241Z,21.98
2023-01-22T19:46:52.354Z,25.15
2023-01-22T19:49:19.544Z,26.90
2023-01-22T19:51:46.928Z,28.45
2023-01-22T19:54:14.412Z,35.10
2023-01-22T19:56:45.501Z,26.77
2023-01-22T19:59:19.855Z,22.05
2023-01-22T20:01:49.223Z,24.17
2023-01-22T20:04:25.136Z,23.40
2023-01-22T20:06:58.794Z,30.03
2023-01-22T20:09:26.143Z,26.20
2023-01-22T20:11:55.629Z,27.02
2023-01-22T20:14:25.517Z,24.73
2023-01-22T20:16:52.933Z,24.92
2023-01-22T20:19:20.016Z,26.80
2023-01-22T20:21:47.141Z,28.25
2023-01-22T20:24:14.324Z,25.80
2023-01-22T20:26:41.507Z,21.35
2023-01-22T20:29:08.569Z,26.98
2023-01-22T20:31:35.722Z,25.20
2023-01-22T20:34:04.509Z,19.63
2023-01-22T20:36:31.963Z,22.85
2023-01-22T20:39:00.746Z,23.50
2023-01-22T20:41:28.471Z,21.63
2023-01-22T20:43:55.579Z,24.47
2023-01-22T20:46:25.758Z,25.00
2023-01-22T20:48:53.830Z,20.75
2023-01-22T20:51:25.289Z,24.58
2023-01-22T20:53:53.977Z,24.15
2023-01-22T20:56:27.228Z,27.90
2023-01-22T20:59:01.440Z,23.35
2023-01-22T21:01:28.822Z,26.15
2023-01-22T21:03:58.195Z,25.48
2023-01-22T21:06:29.753Z,24.70
2023-01-22T21:08:58.812Z,23.90
2023-01-22T21:11:28.308Z,24.65
2023-01-22T21:13:58.420Z,23.98
2023-01-22T21:16:29.689Z,25.95
2023-01-22T21:19:01.261Z,23.17
2023-01-22T21:21:30.132Z,26.10
2023-01-22T21:23:58.619Z,27.08
2023-01-22T21:26:29.475Z,25.70
2023-01-22T21:29:01.215Z,27.35
2023-01-22T21:31:28.761Z,28.48
2023-01-22T21:34:03.618Z,27.47
2023-01-22T21:36:42.663Z,30.17
2023-01-22T21:39:18.463Z,28.27
2023-01-22T21:41:46.524Z,31.15
2023-01-22T21:44:36.154Z,33.20
2023-01-22T21:47:04.465Z,30.30
2023-01-22T21:49:35.963Z,31.35
2023-01-22T21:52:07.743Z,24.88
2023-01-22T21:54:43.417Z,28.10
2023-01-22T21:57:16.280Z,24.23
2023-01-22T21:59:46.480Z,26.93
2023-01-22T22:02:19.387Z,20.92
2023-01-22T22:04:46.745Z,24.02
2023-01-22T22:07:14.232Z,23.70
2023-01-22T22:09:41.525Z,25.80
2023-01-22T22:12:09.482Z,23.20
2023-01-22T22:14:36.573Z,30.02
2023-01-22T22:17:03.671Z,23.38
2023-01-22T22:19:30.822Z,21.77
2023-01-22T22:21:57.934Z,20.92
2023-01-22T22:24:26.044Z,23.10
2023-01-22T22:26:53.148Z,26.38
2023-01-22T22:29:20.306Z,26.90
2023-01-22T22:31:47.469Z,25.42
2023-01-22T22:34:14.619Z,26.65
2023-01-22T22:36:41.656Z,26.53
2023-01-22T22:39:09.779Z,22.45
2023-01-22T22:41:38.509Z,27.05
2023-01-22T22:44:06.740Z,22.73
2023-01-22T22:46:38.428Z,27.08
2023-01-22T22:49:06.631Z,28.40
2023-01-22T22:51:39.661Z,24.27
2023-01-22T22:54:18.936Z,22.75
2023-01-22T22:56:47.758Z,25.90
2023-01-22T22:59:16.209Z,22.30
2023-01-22T23:01:43.268Z,25.40
2023-01-22T23:04:12.675Z,26.10
2023-01-22T23:06:44.858Z,23.58
2023-01-22T23:09:15.809Z,25.70
2023-01-22T23:11:43.121Z,24.00
2023-01-22T23:14:10.405Z,30.70
2023-01-22T23:16:41.939Z,25.38
2023-01-22T23:19:15.914Z,26.25
2023-01-22T23:21:44.112Z,25.08
2023-01-22T23:24:13.564Z,25.13
2023-01-22T23:26:43.300Z,23.77
2023-01-22T23:29:14.656Z,25.40
2023-01-22T23:31:41.922Z,21.45
2023-01-22T23:34:14.129Z,23.05
2023-01-22T23:36:44.987Z,25.50
2023-01-22T23:39:15.932Z,21.87
2023-01-22T23:41:43.548Z,25.67
2023-01-22T23:44:11.704Z,23.23
2023-01-22T23:46:39.179Z,21.17
2023-01-22T23:49:06.345Z,22.75
2023-01-22T23:51:33.691Z,25.93
2023-01-22T23:54:00.861Z,22.33
2023-01-22T23:56:31.592Z,25.58
2023-01-22T23:58:59.611Z,28.88
